Airfield :
LOGIN :

Register | Disclaimer

   EN    FR    IT 

 










Legend :    VFR   Marginal VFR   IFR   Intensive IFR   Very Intensive IFR
Visi :
Ceiling :
>= 8 km
>= 3000ft
5 to 8 km
1000 to 3000 ft
1500m to 5 km
500 to 1000 ft
800 to 1500m
200 to 500 ft
< 800m
< 200 ft
Symbols :   Thunderstorms  Fog  Heavy snow  Heavy precipitations  Wind > 20 kt
SIGMETs :     Misc.  Thunderstorms  Icing  Turbulence  Mountain Waves  Volcanic Ashes






- Airport Elevation : 1036 ft
- IATA code : CLJ


LRCL - Cluj-Napoca International

CURRENT METAR :
  • 302000Z 29013KT 9999 BKN063 02/M05 Q1019

EXPIRED METARs :
  • 301930Z 29012KT 9999 FEW057 SCT063 02/M05 Q1018
  • 301900Z 29016KT 9999 BKN058 02/M04 Q1018
  • 301830Z 29014KT 9999 BKN055 02/M04 Q1018
  • 301800Z 29015KT 9999 SCT053 03/M04 Q1018
  • 301730Z 29012KT 9999 SCT050 03/M04 Q1017

TAF TAF LRCL
Valid from the 30 at 18:00 until the 31 at 03:00 UTC


301700Z 3018/3103 29012KT 9999 SCT050



MET'MAP, your aeronautical weather chart ! - Copyright ORBIFLY December 2007 - Disclaimer

ORBIFLY MET'MAP TEAM :

Programming & Development : Alexandra Zaïnal
Concept & original design : Baudouin d'Aumeries
Assistance for programming : Marc-Olivier Méhu
Technical & hardware support : Manuel Goepfert

Contact : metmap@orbifly.com




SOURCES & CREDITS :

   NOAA